Slingerlands, NY (12159)

7:55 PM EDT on August 25, 2016 (GMT -0400)
Slingerlands - Delmar | | Change Station

Elev 256 ft 42.62 °N, 73.86 °W | Updated 37 seconds ago

Mostly Cloudy
Mostly Cloudy
76.5 °F
Feels Like 77 °F
N
0.0
Wind Variable Wind from SSE
Gusts 0.0 mph

Today
High -- | Low -- °F
--% Chance of Precip.
Yesterday
High -- | Low -- °F
Precip. -- in
Pressure 29.96 in
Visibility 10.0 miles
Clouds Few 3700 ft
Mostly Cloudy 4400 ft
Mostly Cloudy 5000 ft
Mostly Cloudy 26000 ft
Heat Index 77 °F
Dew Point 75 °F
Humidity 94%
Rainfall 0.02 in
Snow Depth Not available.
6:13 AM 7:40 PM
Last Quarter, 41% visible
METAR KALB 252351Z 17004KT 10SM FEW037 BKN044 BKN050 BKN260 24/23 A2996 RMK AO2 SLP145 60026 T02440228 10261 20233 53001
Pressure 29.96 in
Visibility 10.0 miles
Clouds Few 3700 ft
Mostly Cloudy 4400 ft
Mostly Cloudy 5000 ft
Mostly Cloudy 26000 ft
Heat Index 77 °F
Dew Point 75 °F
Humidity 94%
Rainfall 0.02 in
Snow Depth Not available.
6:13 AM 7:40 PM
Last Quarter, 41% visible
METAR KALB 252351Z 17004KT 10SM FEW037 BKN044 BKN050 BKN260 24/23 A2996 RMK AO2 SLP145 60026 T02440228 10261 20233 53001
A tropical disturbance pushing toward the Bahamas, is expected to develop into a tropical depression or storm, and will likely target Florida and the Gulf Coast this weekend into next week.

Right now, the disturbance remains a broad area of low pressure pushing through the Dominican Republic and Haiti, headed toward the southeast Bahamas. Rainfall totals over 3 inches (with locally higher amounts) are expected in HispaƱiola, particularly over elevated terrain.

10-Day Weather Forecast

Almanac

Astronomy

Aug. 25, 2016 Rise Set
Actual Time
Civil Twilight
Nautical Twilight
Astronomical Twilight
Moon
Length of Visible Light
Length of Day
Tomorrow will be .
, % of the Moon is Illuminated

Today's Extremes

State Highs State Lows

Community

WunderPhotos

Upload Photos

1,934,967 photos uploaded!

WunderBlog® & News

Nearby

Air Quality

  Air Quality AQ Index Pollutant
Not available.

Snow Depth

Station Depth Elevation

Earthquake Activity

City Distance Mag. Time & Date
Minimum magnitude displayed is 2.5.

Coastal Water Temperatures

Place Temperature

Stations

Nearby Weather Stations

Station Location Temp. Windchill Dew Point Humidity Wind Precip. Elev Updated Type
                   

Watches & Warnings

There are currently no watches in effect.